createdAt,value
2023-03-25T00:01:19.884Z,58.47
2023-03-25T00:03:50.889Z,58.70
2023-03-25T00:06:19.923Z,59.30
2023-03-25T00:08:48.338Z,59.69
2023-03-25T00:11:18.111Z,59.90
2023-03-25T00:13:46.419Z,60.22
2023-03-25T00:16:15.058Z,60.18
2023-03-25T00:18:43.766Z,59.93
2023-03-25T00:21:12.171Z,60.06
2023-03-25T00:23:41.818Z,59.98
2023-03-25T00:26:10.438Z,60.07
2023-03-25T00:28:40.611Z,60.11
2023-03-25T00:31:10.792Z,60.37
2023-03-25T00:33:41.916Z,60.27
2023-03-25T00:36:13.794Z,60.31
2023-03-25T00:38:43.748Z,60.28
2023-03-25T00:41:23.481Z,60.34
2023-03-25T00:43:54.420Z,60.28
2023-03-25T00:46:23.395Z,60.05
2023-03-25T00:48:52.775Z,60.10
2023-03-25T00:51:21.877Z,60.46
2023-03-25T00:53:53.503Z,60.29
2023-03-25T00:56:22.047Z,60.33
2023-03-25T00:58:50.541Z,60.75
2023-03-25T01:01:23.693Z,60.56
2023-03-25T01:03:58.032Z,60.63
2023-03-25T01:06:30.076Z,60.52
2023-03-25T01:08:59.423Z,60.83
2023-03-25T01:11:30.354Z,60.77
2023-03-25T01:14:00.571Z,60.39
2023-03-25T01:16:30.947Z,60.03
2023-03-25T01:18:59.319Z,59.87
2023-03-25T01:21:27.976Z,58.66
2023-03-25T01:23:56.337Z,59.25
2023-03-25T01:26:24.714Z,59.34
2023-03-25T01:28:54.068Z,59.34
2023-03-25T01:31:24.419Z,59.92
2023-03-25T01:33:54.140Z,59.22
2023-03-25T01:36:24.807Z,59.87
2023-03-25T01:38:53.531Z,58.93
2023-03-25T01:41:21.867Z,59.32
2023-03-25T01:44:08.350Z,59.57
2023-03-25T01:46:37.530Z,59.80
2023-03-25T01:49:10.861Z,59.93
2023-03-25T01:51:43.512Z,59.56
2023-03-25T01:54:13.011Z,59.66
2023-03-25T01:56:43.607Z,60.07
2023-03-25T01:59:12.349Z,60.07
2023-03-25T02:01:40.679Z,60.60
2023-03-25T02:04:12.123Z,60.48
2023-03-25T02:06:44.579Z,59.90
2023-03-25T02:09:15.330Z,60.12
2023-03-25T02:11:43.590Z,60.75
2023-03-25T02:14:15.237Z,60.12
2023-03-25T02:16:50.621Z,59.99
2023-03-25T02:19:57.415Z,59.75
2023-03-25T02:22:51.173Z,59.58
2023-03-25T02:25:46.364Z,59.09
2023-03-25T02:28:26.206Z,59.22
2023-03-25T02:31:22.689Z,59.20
2023-03-25T02:34:31.630Z,59.15
2023-03-25T02:37:31.161Z,59.28
2023-03-25T02:40:07.524Z,59.20
2023-03-25T02:42:41.093Z,58.85
2023-03-25T02:45:17.219Z,59.15
2023-03-25T02:47:50.537Z,58.87
2023-03-25T02:50:25.108Z,58.67
2023-03-25T02:52:58.737Z,58.33
2023-03-25T02:55:30.739Z,58.55
2023-03-25T02:58:01.907Z,58.28
2023-03-25T03:00:31.028Z,58.23
2023-03-25T03:03:01.391Z,57.22
2023-03-25T03:05:32.516Z,58.11
2023-03-25T03:08:23.794Z,57.76
2023-03-25T03:11:03.904Z,57.99
2023-03-25T03:13:46.751Z,57.98
2023-03-25T03:16:24.997Z,57.71
2023-03-25T03:19:03.554Z,58.03
2023-03-25T03:21:38.421Z,57.24
2023-03-25T03:24:14.324Z,57.30
2023-03-25T03:26:49.095Z,58.11
2023-03-25T03:29:21.121Z,57.43
2023-03-25T03:32:05.681Z,57.60
2023-03-25T03:34:44.840Z,57.75
2023-03-25T03:37:16.746Z,57.69
2023-03-25T03:39:46.520Z,57.82
2023-03-25T03:42:20.635Z,57.49
2023-03-25T03:44:54.572Z,57.46
2023-03-25T03:47:27.986Z,57.71
2023-03-25T03:50:00.625Z,57.32
2023-03-25T03:52:34.691Z,57.54
2023-03-25T03:55:10.955Z,57.19
2023-03-25T03:57:46.869Z,57.40
2023-03-25T04:00:19.934Z,57.50
2023-03-25T04:02:52.431Z,57.39
2023-03-25T04:05:23.558Z,57.50
2023-03-25T04:07:58.894Z,58.15
2023-03-25T04:10:35.015Z,58.31
2023-03-25T04:13:09.510Z,57.79
2023-03-25T04:15:38.637Z,58.18
2023-03-25T04:18:07.104Z,57.83
2023-03-25T04:20:36.877Z,58.00
2023-03-25T04:23:06.568Z,57.62
2023-03-25T04:25:35.232Z,58.05
2023-03-25T04:28:05.131Z,58.42
2023-03-25T04:30:33.429Z,58.24
2023-03-25T04:33:01.854Z,58.27
2023-03-25T04:35:33.221Z,58.44
2023-03-25T04:38:01.895Z,58.42
2023-03-25T04:40:30.427Z,58.23
2023-03-25T04:42:58.843Z,58.52
2023-03-25T04:45:28.867Z,58.73
2023-03-25T04:47:58.226Z,58.92
2023-03-25T04:50:28.517Z,59.47
2023-03-25T04:52:58.403Z,59.62
2023-03-25T04:55:26.793Z,59.64
2023-03-25T04:57:56.444Z,59.65
2023-03-25T05:00:27.254Z,59.91
2023-03-25T05:03:02.090Z,59.89
2023-03-25T05:05:30.569Z,60.09
2023-03-25T05:07:59.436Z,60.20
2023-03-25T05:10:29.883Z,60.71
2023-03-25T05:13:00.533Z,60.90
2023-03-25T05:15:30.587Z,61.24
2023-03-25T05:18:00.409Z,61.18
2023-03-25T05:20:28.982Z,61.31
2023-03-25T05:22:57.761Z,61.21
2023-03-25T05:25:26.057Z,61.35
2023-03-25T05:27:54.582Z,61.92
2023-03-25T05:30:23.003Z,61.64
2023-03-25T05:32:56.776Z,61.92
2023-03-25T05:35:27.883Z,62.11
2023-03-25T05:37:57.752Z,61.88
2023-03-25T05:40:26.469Z,62.79
2023-03-25T05:42:54.977Z,62.50
2023-03-25T05:45:23.599Z,62.32
2023-03-25T05:47:52.444Z,62.67
2023-03-25T05:50:21.903Z,62.63
2023-03-25T05:52:52.042Z,62.70
2023-03-25T05:55:22.998Z,62.19
2023-03-25T05:57:51.461Z,62.57
2023-03-25T06:00:23.529Z,62.33
2023-03-25T06:02:52.922Z,62.56
2023-03-25T06:05:23.974Z,62.68
2023-03-25T06:07:56.605Z,63.28
2023-03-25T06:10:25.254Z,63.29
2023-03-25T06:12:54.436Z,63.12
2023-03-25T06:15:29.227Z,62.95
2023-03-25T06:17:58.015Z,63.21
2023-03-25T06:20:26.308Z,62.76
2023-03-25T06:22:56.450Z,62.72
2023-03-25T06:25:26.880Z,62.54
2023-03-25T06:27:58.122Z,62.26
2023-03-25T06:30:26.487Z,62.81
2023-03-25T06:32:58.392Z,63.49
2023-03-25T06:35:26.792Z,63.50
2023-03-25T06:37:56.725Z,63.80
2023-03-25T06:40:26.058Z,63.89
2023-03-25T06:42:54.406Z,63.87
2023-03-25T06:45:22.786Z,63.58
2023-03-25T06:47:51.154Z,63.49
2023-03-25T06:50:19.929Z,63.64
2023-03-25T06:52:48.192Z,63.54
2023-03-25T06:55:18.060Z,63.57
2023-03-25T06:57:46.688Z,63.50
2023-03-25T07:00:20.399Z,63.55
2023-03-25T07:02:48.511Z,63.20
2023-03-25T07:05:16.868Z,63.57
2023-03-25T07:07:45.765Z,63.86
2023-03-25T07:10:14.476Z,62.83
2023-03-25T07:12:44.472Z,63.07
2023-03-25T07:15:13.213Z,63.39
2023-03-25T07:17:43.694Z,62.71
2023-03-25T07:20:14.464Z,63.38
2023-03-25T07:22:44.137Z,63.27
2023-03-25T07:25:12.478Z,63.17
2023-03-25T07:27:40.888Z,62.98
2023-03-25T07:30:11.741Z,61.60
2023-03-25T07:32:40.240Z,62.30
2023-03-25T07:35:09.619Z,62.11
2023-03-25T07:37:37.896Z,62.59
2023-03-25T07:40:07.284Z,61.88
2023-03-25T07:42:37.667Z,62.65
2023-03-25T07:45:07.247Z,63.07
2023-03-25T07:47:37.047Z,63.17
2023-03-25T07:50:05.961Z,62.76
2023-03-25T07:52:34.317Z,62.99
2023-03-25T07:55:02.645Z,63.04
2023-03-25T07:57:31.351Z,62.44
2023-03-25T07:59:59.975Z,62.51
2023-03-25T08:02:28.305Z,62.69
2023-03-25T08:04:58.113Z,62.75
2023-03-25T08:07:28.547Z,61.86
2023-03-25T08:09:56.830Z,62.56
2023-03-25T08:12:25.136Z,62.66
2023-03-25T08:14:53.506Z,62.19
2023-03-25T08:17:21.904Z,60.62
2023-03-25T08:19:50.559Z,61.99
2023-03-25T08:22:20.620Z,62.19
2023-03-25T08:24:49.246Z,62.75
2023-03-25T08:27:17.554Z,62.96
2023-03-25T08:29:47.379Z,63.12
2023-03-25T08:32:15.717Z,63.24
2023-03-25T08:34:44.253Z,63.22
2023-03-25T08:37:12.603Z,63.84
2023-03-25T08:39:45.262Z,63.53
2023-03-25T08:42:15.177Z,63.65
2023-03-25T08:44:43.471Z,63.49
2023-03-25T08:47:11.792Z,63.22
2023-03-25T08:49:40.046Z,63.08
2023-03-25T08:52:10.638Z,62.83
2023-03-25T08:54:39.020Z,62.88
2023-03-25T08:57:09.032Z,62.66
2023-03-25T08:59:37.443Z,61.97
2023-03-25T09:02:05.936Z,60.84
2023-03-25T09:04:34.251Z,60.31
2023-03-25T09:07:11.254Z,59.60
2023-03-25T09:09:40.848Z,59.67
2023-03-25T09:12:11.135Z,60.57
2023-03-25T09:14:39.882Z,60.61
2023-03-25T09:17:10.262Z,60.74
2023-03-25T09:19:39.040Z,60.79
2023-03-25T09:22:08.363Z,60.50
2023-03-25T09:24:36.759Z,60.52
2023-03-25T09:27:05.644Z,60.56
2023-03-25T09:29:35.742Z,60.30
2023-03-25T09:32:04.436Z,60.12
2023-03-25T09:34:32.848Z,60.91
2023-03-25T09:37:01.351Z,61.00
2023-03-25T09:39:29.743Z,61.49
2023-03-25T09:42:11.812Z,61.04
2023-03-25T09:44:57.305Z,61.34
2023-03-25T09:47:27.115Z,61.17
2023-03-25T09:50:01.408Z,61.07
2023-03-25T09:52:36.150Z,61.10
2023-03-25T09:55:07.928Z,61.40
2023-03-25T09:57:46.157Z,61.22
2023-03-25T10:00:20.237Z,61.21
2023-03-25T10:02:55.516Z,59.16
2023-03-25T10:05:47.484Z,60.15
2023-03-25T10:08:24.450Z,60.67
2023-03-25T10:11:01.180Z,60.62
2023-03-25T10:13:37.578Z,59.07
2023-03-25T10:16:16.544Z,59.47
2023-03-25T10:18:57.893Z,59.49
2023-03-25T10:21:32.006Z,58.72
2023-03-25T10:24:12.060Z,57.76
2023-03-25T10:26:46.854Z,58.59
2023-03-25T10:29:19.781Z,57.61
2023-03-25T10:31:53.812Z,58.34
2023-03-25T10:34:29.652Z,58.42
2023-03-25T10:37:00.555Z,56.38
2023-03-25T10:39:37.492Z,56.01
2023-03-25T10:42:18.370Z,58.07
2023-03-25T10:44:48.234Z,58.84
2023-03-25T10:47:21.503Z,58.97
2023-03-25T10:49:52.470Z,59.90
2023-03-25T10:52:20.885Z,60.50
2023-03-25T10:54:53.340Z,60.00
2023-03-25T10:57:26.154Z,60.00
2023-03-25T11:00:06.215Z,60.48
2023-03-25T11:02:36.357Z,60.77
2023-03-25T11:05:06.677Z,60.73
2023-03-25T11:07:37.561Z,61.11
2023-03-25T11:10:21.708Z,60.94
2023-03-25T11:12:52.602Z,61.16
2023-03-25T11:15:24.126Z,61.13
2023-03-25T11:18:02.069Z,60.79
2023-03-25T11:20:36.757Z,59.20
2023-03-25T11:23:08.763Z,59.30
2023-03-25T11:25:42.150Z,57.93
2023-03-25T11:28:19.168Z,58.24
2023-03-25T11:31:16.730Z,57.25
2023-03-25T11:33:48.387Z,57.97
2023-03-25T11:36:26.848Z,57.72
2023-03-25T11:38:59.753Z,56.26
2023-03-25T11:41:36.869Z,57.16
2023-03-25T11:44:07.452Z,57.46
2023-03-25T11:46:43.018Z,57.58
2023-03-25T11:49:19.881Z,56.51
2023-03-25T11:51:48.305Z,56.81
2023-03-25T11:54:18.777Z,56.62
2023-03-25T11:56:51.454Z,57.84
2023-03-25T11:59:25.261Z,57.49
2023-03-25T12:02:02.704Z,57.62
2023-03-25T12:04:32.640Z,58.89
2023-03-25T12:07:02.868Z,58.51
2023-03-25T12:09:33.478Z,59.66
2023-03-25T12:12:26.879Z,59.08
2023-03-25T12:15:07.269Z,59.88
2023-03-25T12:17:47.805Z,60.49
2023-03-25T12:20:27.483Z,60.11
2023-03-25T12:23:03.662Z,59.57
2023-03-25T12:25:56.909Z,60.04
2023-03-25T12:28:46.663Z,60.52
2023-03-25T12:31:27.574Z,60.76
2023-03-25T12:34:08.072Z,60.20
2023-03-25T12:36:49.849Z,60.46
2023-03-25T12:39:43.717Z,59.78
2023-03-25T12:42:22.950Z,59.88
2023-03-25T12:45:06.137Z,60.17
2023-03-25T12:47:37.302Z,60.74
2023-03-25T12:50:44.863Z,61.38
2023-03-25T12:53:33.113Z,61.22
2023-03-25T12:56:11.649Z,60.78
2023-03-25T12:59:07.601Z,60.43
2023-03-25T13:01:46.261Z,59.93
2023-03-25T13:04:38.385Z,60.12
2023-03-25T13:07:13.005Z,60.13
2023-03-25T13:09:53.604Z,59.42
2023-03-25T13:12:33.026Z,59.33
2023-03-25T13:15:09.628Z,58.35
2023-03-25T13:17:42.766Z,57.03
2023-03-25T13:20:13.019Z,57.86
2023-03-25T13:22:45.092Z,58.49
2023-03-25T13:25:22.774Z,57.61
2023-03-25T13:27:53.476Z,57.76
2023-03-25T13:30:32.237Z,58.04
2023-03-25T13:33:08.302Z,57.33
2023-03-25T13:35:43.179Z,57.38
2023-03-25T13:38:16.577Z,57.04
2023-03-25T13:40:53.248Z,57.71
2023-03-25T13:43:37.573Z,57.76
2023-03-25T13:46:09.584Z,57.09
2023-03-25T13:48:43.502Z,55.07
2023-03-25T13:51:12.203Z,56.10
2023-03-25T13:53:46.708Z,55.74
2023-03-25T13:56:53.693Z,56.36
2023-03-25T13:59:45.961Z,55.05
2023-03-25T14:02:35.795Z,55.40
2023-03-25T14:05:44.228Z,55.97
2023-03-25T14:08:32.521Z,56.40
2023-03-25T14:11:18.854Z,55.53
2023-03-25T14:13:52.712Z,55.53
2023-03-25T14:16:25.800Z,55.64
2023-03-25T14:18:57.228Z,56.01
2023-03-25T14:21:33.922Z,55.34
2023-03-25T14:24:04.794Z,55.82
2023-03-25T14:26:35.578Z,55.52
2023-03-25T14:29:11.255Z,55.37
2023-03-25T14:31:41.023Z,54.47
2023-03-25T14:34:30.169Z,54.05
2023-03-25T14:37:29.043Z,52.92
2023-03-25T14:40:00.352Z,54.10
2023-03-25T14:42:31.723Z,53.98
2023-03-25T14:45:42.337Z,52.93
2023-03-25T14:48:38.028Z,52.99
2023-03-25T14:51:41.079Z,52.41
2023-03-25T14:54:22.501Z,51.64
2023-03-25T14:56:57.297Z,51.77
2023-03-25T14:59:32.165Z,50.61
2023-03-25T15:02:07.346Z,50.37
2023-03-25T15:04:40.305Z,51.03
2023-03-25T15:07:14.139Z,50.87
2023-03-25T15:09:48.800Z,51.46
2023-03-25T15:12:21.034Z,51.46
2023-03-25T15:14:51.647Z,51.62
2023-03-25T15:17:43.015Z,51.15
2023-03-25T15:20:36.206Z,52.09
2023-03-25T15:23:33.300Z,51.89
2023-03-25T15:26:05.024Z,51.99
2023-03-25T15:28:48.915Z,51.25
2023-03-25T15:31:32.136Z,51.13
2023-03-25T15:34:16.204Z,51.23
2023-03-25T15:36:52.310Z,52.13
2023-03-25T15:39:37.046Z,52.04
2023-03-25T15:42:24.796Z,52.19
2023-03-25T15:45:28.767Z,51.46
2023-03-25T15:48:34.622Z,52.00
2023-03-25T15:51:16.664Z,52.62
2023-03-25T15:54:10.517Z,52.60
2023-03-25T15:56:43.514Z,53.13
2023-03-25T15:59:30.345Z,53.63
2023-03-25T16:02:02.891Z,54.01
2023-03-25T16:04:39.822Z,54.61
2023-03-25T16:07:11.524Z,54.89
2023-03-25T16:09:46.262Z,55.00
2023-03-25T16:12:23.038Z,54.16
2023-03-25T16:14:52.739Z,55.25
2023-03-25T16:17:23.422Z,55.99
2023-03-25T16:19:54.523Z,55.96
2023-03-25T16:22:27.991Z,56.02
2023-03-25T16:24:59.856Z,56.29
2023-03-25T16:27:32.232Z,55.99
2023-03-25T16:30:01.021Z,56.02
2023-03-25T16:32:34.423Z,56.72
2023-03-25T16:35:04.782Z,56.84
2023-03-25T16:37:34.199Z,56.93
2023-03-25T16:40:07.579Z,57.09
2023-03-25T16:42:37.367Z,56.73
2023-03-25T16:45:07.368Z,56.14
2023-03-25T16:47:36.214Z,56.25
2023-03-25T16:50:06.376Z,56.11
2023-03-25T16:52:36.259Z,56.49
2023-03-25T16:55:28.904Z,56.70
2023-03-25T16:57:57.443Z,56.80
2023-03-25T17:00:26.826Z,56.67
2023-03-25T17:02:55.654Z,56.74
2023-03-25T17:05:26.374Z,57.07
2023-03-25T17:08:02.070Z,56.89
2023-03-25T17:10:34.484Z,56.42
2023-03-25T17:13:09.243Z,56.94
2023-03-25T17:15:38.299Z,57.10
2023-03-25T17:18:14.396Z,57.00
2023-03-25T17:20:45.025Z,57.27
2023-03-25T17:23:28.668Z,57.13
2023-03-25T17:26:00.358Z,56.84
2023-03-25T17:28:33.260Z,56.14
2023-03-25T17:31:02.345Z,55.71
2023-03-25T17:33:35.369Z,55.29
2023-03-25T17:36:09.439Z,55.89
2023-03-25T17:38:45.093Z,55.90
2023-03-25T17:41:17.358Z,55.37
2023-03-25T17:43:48.904Z,56.72
2023-03-25T17:46:21.915Z,57.43
2023-03-25T17:48:53.473Z,57.72
2023-03-25T17:51:22.880Z,58.06
2023-03-25T17:53:51.432Z,58.26
2023-03-25T17:56:25.683Z,58.50
2023-03-25T17:58:59.975Z,58.85
2023-03-25T18:01:28.912Z,58.97
2023-03-25T18:03:57.560Z,59.29
2023-03-25T18:06:26.166Z,59.51
2023-03-25T18:08:54.471Z,59.36
2023-03-25T18:11:24.166Z,58.84
2023-03-25T18:13:52.688Z,59.17
2023-03-25T18:16:22.832Z,59.04
2023-03-25T18:18:51.936Z,59.18
2023-03-25T18:21:21.195Z,59.09
2023-03-25T18:23:49.623Z,59.12
2023-03-25T18:26:19.876Z,59.18
2023-03-25T18:28:50.165Z,59.52
2023-03-25T18:31:19.006Z,59.23
2023-03-25T18:33:48.627Z,59.34
2023-03-25T18:36:17.565Z,59.28
2023-03-25T18:38:46.476Z,58.77
2023-03-25T18:41:17.342Z,58.71
2023-03-25T18:43:45.896Z,58.60
2023-03-25T18:46:16.405Z,58.52
2023-03-25T18:48:45.243Z,58.56
2023-03-25T18:51:14.428Z,58.66
2023-03-25T18:53:43.038Z,58.45
2023-03-25T18:56:11.852Z,58.34
2023-03-25T18:58:40.239Z,58.73
2023-03-25T19:01:10.176Z,58.18
2023-03-25T19:03:40.314Z,58.49
2023-03-25T19:06:12.075Z,58.40
2023-03-25T19:08:40.755Z,58.16
2023-03-25T19:11:19.909Z,58.27
2023-03-25T19:13:49.154Z,58.10
2023-03-25T19:16:17.754Z,58.06
2023-03-25T19:18:47.743Z,57.97
2023-03-25T19:21:17.866Z,58.03
2023-03-25T19:23:46.227Z,57.74
2023-03-25T19:26:14.962Z,57.37
2023-03-25T19:28:43.884Z,57.62
2023-03-25T19:31:15.743Z,57.04
2023-03-25T19:33:44.604Z,56.53
2023-03-25T19:36:19.177Z,57.02
2023-03-25T19:38:47.756Z,57.29
2023-03-25T19:41:17.429Z,57.11
2023-03-25T19:43:46.026Z,56.57
2023-03-25T19:46:14.529Z,56.50
2023-03-25T19:48:42.862Z,56.52
2023-03-25T19:51:11.224Z,56.74
2023-03-25T19:53:41.059Z,56.20
2023-03-25T19:56:13.993Z,56.21
2023-03-25T19:58:42.522Z,56.14
2023-03-25T20:01:11.245Z,56.56
2023-03-25T20:03:41.288Z,56.51
2023-03-25T20:06:10.057Z,56.30
2023-03-25T20:08:38.430Z,56.50
2023-03-25T20:11:12.846Z,56.69
2023-03-25T20:13:41.419Z,57.15
2023-03-25T20:16:10.271Z,57.44
2023-03-25T20:18:39.110Z,57.16
2023-03-25T20:21:08.792Z,57.18
2023-03-25T20:23:37.234Z,56.92
2023-03-25T20:26:06.242Z,56.76
2023-03-25T20:28:37.458Z,56.32
2023-03-25T20:31:18.504Z,56.80
2023-03-25T20:33:47.655Z,56.46
2023-03-25T20:36:15.944Z,56.59
2023-03-25T20:38:56.075Z,56.63
2023-03-25T20:41:25.767Z,56.87
2023-03-25T20:43:55.917Z,56.90
2023-03-25T20:46:28.523Z,57.26
2023-03-25T20:48:57.393Z,57.90
2023-03-25T20:51:26.531Z,58.12
2023-03-25T20:53:54.920Z,58.38
2023-03-25T20:56:23.265Z,58.78
2023-03-25T20:58:51.939Z,59.14
2023-03-25T21:01:22.279Z,59.85
2023-03-25T21:03:52.217Z,59.27
2023-03-25T21:06:23.725Z,60.22
2023-03-25T21:08:54.801Z,61.01
2023-03-25T21:11:23.267Z,61.66
2023-03-25T21:13:51.619Z,61.91
2023-03-25T21:16:21.444Z,61.94
2023-03-25T21:18:50.444Z,61.57
2023-03-25T21:21:20.072Z,62.06
2023-03-25T21:23:49.613Z,62.28
2023-03-25T21:26:18.219Z,61.53
2023-03-25T21:28:46.619Z,61.08
2023-03-25T21:31:20.209Z,61.74
2023-03-25T21:33:52.662Z,62.01
2023-03-25T21:36:24.338Z,62.04
2023-03-25T21:38:55.819Z,62.09
2023-03-25T21:41:24.133Z,62.27
2023-03-25T21:43:53.401Z,62.13
2023-03-25T21:46:24.439Z,61.77
2023-03-25T21:48:55.039Z,62.27
2023-03-25T21:51:23.383Z,62.20
2023-03-25T21:53:52.879Z,61.93
2023-03-25T21:56:24.790Z,61.91
2023-03-25T21:58:53.525Z,62.27
2023-03-25T22:01:28.821Z,62.25
2023-03-25T22:04:00.128Z,62.33
2023-03-25T22:06:30.629Z,62.03
2023-03-25T22:08:59.161Z,62.13
2023-03-25T22:11:29.793Z,62.24
2023-03-25T22:13:58.409Z,62.50
2023-03-25T22:16:27.084Z,62.53
2023-03-25T22:18:55.509Z,62.81
2023-03-25T22:21:29.670Z,62.92
2023-03-25T22:24:00.229Z,63.49
2023-03-25T22:26:31.241Z,63.36
2023-03-25T22:29:01.940Z,63.37
2023-03-25T22:31:39.827Z,63.12
2023-03-25T22:34:12.105Z,63.52
2023-03-25T22:36:46.415Z,63.30
2023-03-25T22:39:14.719Z,63.44
2023-03-25T22:41:43.176Z,63.54
2023-03-25T22:44:12.392Z,63.34
2023-03-25T22:46:41.133Z,63.50
2023-03-25T22:49:09.524Z,63.50
2023-03-25T22:51:37.872Z,63.80
2023-03-25T22:54:09.924Z,63.91
2023-03-25T22:56:38.242Z,63.05
2023-03-25T22:59:08.275Z,63.48
2023-03-25T23:01:37.234Z,63.26
2023-03-25T23:04:06.270Z,63.76
2023-03-25T23:06:36.400Z,63.29
2023-03-25T23:09:08.609Z,63.64
2023-03-25T23:11:38.375Z,63.82
2023-03-25T23:14:09.097Z,63.87
2023-03-25T23:16:39.028Z,64.21
2023-03-25T23:19:09.927Z,64.33
2023-03-25T23:21:38.584Z,63.78
2023-03-25T23:24:09.274Z,63.38
2023-03-25T23:26:40.269Z,63.59
2023-03-25T23:29:10.232Z,63.43
2023-03-25T23:31:41.322Z,63.59
2023-03-25T23:34:11.421Z,63.36
2023-03-25T23:36:40.390Z,62.76
2023-03-25T23:39:11.945Z,62.92
2023-03-25T23:41:40.262Z,63.32
2023-03-25T23:44:08.893Z,62.95
2023-03-25T23:46:37.303Z,63.32
2023-03-25T23:49:05.823Z,63.03
2023-03-25T23:51:36.750Z,63.09
2023-03-25T23:54:06.139Z,63.33
2023-03-25T23:56:36.647Z,63.27
2023-03-25T23:59:06.576Z,63.30
